createdAt,value
2022-12-23T00:09:47.056Z,99918.53
2022-12-23T00:19:50.247Z,99917.66
2022-12-23T00:51:05.229Z,99915.06
2022-12-23T01:01:27.264Z,99918.50
2022-12-23T01:11:32.272Z,99922.91
2022-12-23T01:21:35.421Z,99925.91
2022-12-23T01:31:39.946Z,99929.25
2022-12-23T01:42:01.473Z,99933.59
2022-12-23T01:52:06.148Z,99936.06
2022-12-23T02:02:27.711Z,99939.97
2022-12-23T02:12:46.303Z,99944.03
2022-12-23T02:23:14.480Z,99945.06
2022-12-23T02:33:35.691Z,99943.75
2022-12-23T02:43:46.729Z,99948.81
2022-12-23T02:53:55.406Z,99953.41
2022-12-23T03:03:58.677Z,99957.13
2022-12-23T03:14:20.588Z,99960.81
2022-12-23T03:24:35.071Z,99963.13
2022-12-23T03:34:42.887Z,99964.75
2022-12-23T03:45:19.150Z,99966.28
2022-12-23T03:55:18.584Z,99966.19
2022-12-23T04:05:27.085Z,99966.94
2022-12-23T04:15:32.182Z,99968.88
2022-12-23T04:25:35.233Z,99968.78
2022-12-23T04:35:40.734Z,99969.09
2022-12-23T04:45:44.303Z,99966.38
2022-12-23T04:55:52.642Z,99961.91
2022-12-23T05:05:56.070Z,99964.34
2022-12-23T05:16:01.423Z,99963.22
2022-12-23T05:26:05.445Z,99961.84
2022-12-23T05:36:11.529Z,99963.50
2022-12-23T05:46:14.830Z,99967.34
2022-12-23T05:56:19.623Z,99970.16
2022-12-23T06:06:25.164Z,99967.88
2022-12-23T06:16:29.956Z,99962.66
2022-12-23T06:26:34.217Z,99967.97
2022-12-23T06:36:39.163Z,99969.13
2022-12-23T06:46:42.633Z,99970.13
2022-12-23T06:56:47.123Z,99974.34
2022-12-23T07:06:50.402Z,99974.81
2022-12-23T07:16:55.226Z,99979.19
2022-12-23T07:26:58.554Z,99983.56
2022-12-23T07:37:03.216Z,99983.66
2022-12-23T07:47:06.531Z,99985.84
2022-12-23T07:57:11.367Z,99985.78
2022-12-23T08:07:14.713Z,99989.13
2022-12-23T08:17:21.519Z,99986.34
2022-12-23T08:27:24.741Z,99987.28
2022-12-23T08:37:32.326Z,99984.50
2022-12-23T08:47:35.751Z,99983.81
2022-12-23T08:57:40.789Z,99978.38
2022-12-23T09:07:45.670Z,99972.13
2022-12-23T09:17:50.132Z,99966.63
2022-12-23T09:27:54.457Z,99965.81
2022-12-23T09:38:00.536Z,99959.94
2022-12-23T09:48:08.243Z,99959.06
2022-12-23T09:58:27.360Z,99954.84
2022-12-23T10:08:36.108Z,99949.19
2022-12-23T10:18:49.669Z,99947.91
2022-12-23T10:28:59.895Z,99941.56
2022-12-23T10:39:14.335Z,99933.03
2022-12-23T10:49:29.407Z,99931.13
2022-12-23T10:59:36.101Z,99929.38
2022-12-23T11:09:43.189Z,99928.81
2022-12-23T11:19:48.401Z,99926.63
2022-12-23T11:29:55.108Z,99925.16
2022-12-23T11:40:04.192Z,99924.09
2022-12-23T11:50:30.759Z,99921.16
2022-12-23T12:00:40.955Z,99919.75
2022-12-23T12:10:45.611Z,99917.31
2022-12-23T12:20:54.184Z,99915.75
2022-12-23T12:31:04.113Z,99912.22
2022-12-23T12:41:20.119Z,99907.69
2022-12-23T12:51:28.022Z,99903.66
2022-12-23T13:01:44.387Z,99899.97
2022-12-23T13:11:55.272Z,99891.59
2022-12-23T13:22:06.205Z,99888.91
2022-12-23T13:32:30.669Z,99881.31
2022-12-23T13:42:40.783Z,99880.94
2022-12-23T13:53:02.501Z,99879.16
2022-12-23T14:03:20.599Z,99874.56
2022-12-23T14:13:27.166Z,99870.44
2022-12-23T14:23:44.160Z,99864.94
2022-12-23T14:33:49.731Z,99859.72
2022-12-23T14:44:00.111Z,99858.41
2022-12-23T14:54:15.395Z,99852.41
2022-12-23T15:04:26.571Z,99849.38
2022-12-23T15:14:34.787Z,99847.03
2022-12-23T15:24:43.295Z,99844.50
2022-12-23T15:34:48.424Z,99840.88
2022-12-23T15:44:53.924Z,99838.81
2022-12-23T15:55:04.442Z,99836.28
2022-12-23T16:05:10.235Z,99827.28
2022-12-23T16:15:27.499Z,99823.19
2022-12-23T16:25:33.948Z,99815.69
2022-12-23T16:35:38.968Z,99813.81
2022-12-23T16:45:50.531Z,99807.63
2022-12-23T16:56:00.849Z,99805.44
2022-12-23T17:06:09.241Z,99798.00
2022-12-23T17:16:15.685Z,99792.25
2022-12-23T17:26:20.619Z,99782.47
2022-12-23T17:36:23.959Z,99777.19
2022-12-23T17:46:30.749Z,99774.88
2022-12-23T17:56:35.495Z,99764.31
2022-12-23T18:06:43.149Z,99755.22
2022-12-23T18:16:48.365Z,99749.97
2022-12-23T18:26:53.861Z,99744.53
2022-12-23T18:36:58.731Z,99742.25
2022-12-23T18:47:03.597Z,99736.44
2022-12-23T18:57:07.110Z,99734.25
2022-12-23T19:07:13.049Z,99730.50
2022-12-23T19:17:18.204Z,99729.06
2022-12-23T19:27:23.633Z,99727.47
2022-12-23T19:37:27.612Z,99724.88
2022-12-23T19:47:32.454Z,99723.44
2022-12-23T19:57:35.438Z,99718.13
2022-12-23T20:07:41.197Z,99714.38
2022-12-23T20:17:47.851Z,99712.84
2022-12-23T20:28:05.063Z,99710.47
2022-12-23T20:38:11.534Z,99708.78
2022-12-23T20:59:00.658Z,99694.53
2022-12-23T21:09:12.146Z,99689.63
2022-12-23T21:19:18.571Z,99688.94
2022-12-23T21:29:29.807Z,99683.47
2022-12-23T21:39:42.245Z,99680.31
2022-12-23T21:49:46.914Z,99679.06
2022-12-23T21:59:50.026Z,99676.66
2022-12-23T22:09:54.785Z,99676.56
2022-12-23T22:19:57.878Z,99676.06
2022-12-23T22:30:02.419Z,99676.22
2022-12-23T22:40:07.114Z,99672.91
2022-12-23T22:50:12.579Z,99674.31
2022-12-23T23:00:17.890Z,99670.69
2022-12-23T23:10:22.558Z,99671.38
2022-12-23T23:20:25.584Z,99663.56
2022-12-23T23:30:31.646Z,99661.66
2022-12-23T23:40:37.852Z,99663.66
